Toritama, Brazil
Current Conditions -  °F | °C
As of 1:00 PM on Tuesday 27 Jan 2015 (Local Time) from SBKG Reporting Station
Few Clouds Few Clouds  
Wind Chill: 88°   Ceiling: Unl
Heat Index: 88°   Visibility: 6mi
Dew Point: 59°   Wind: 14mph
Humidity: 38%   Direction: 140°SE
Pressure: 29.97"   Gusts: NA
Location:  8°S, 36.05°W
Report Text: SBKG 271600Z 14012KT 9999 FEW040 31/15 Q1015
Loading
Personal Weather Stations






























Interactive Weather Map New forecast layout! Learn more

10-Day Weather Forecast

Advertisements
Track Severe Weather on mobile